createdAt,value
2022-09-03T00:01:05.922Z,101745.75
2022-09-03T00:03:39.000Z,101744.00
2022-09-03T00:06:21.714Z,101739.56
2022-09-03T00:09:11.076Z,101739.53
2022-09-03T00:11:38.307Z,101735.09
2022-09-03T00:14:07.623Z,101736.88
2022-09-03T00:16:40.899Z,101742.25
2022-09-03T00:19:07.475Z,101738.66
2022-09-03T00:21:33.742Z,101736.00
2022-09-03T00:24:01.386Z,101742.22
2022-09-03T00:26:29.904Z,101744.00
2022-09-03T00:29:00.001Z,101731.56
2022-09-03T00:31:32.855Z,101736.00
2022-09-03T00:34:02.163Z,101740.44
2022-09-03T00:36:35.688Z,101738.66
2022-09-03T00:39:01.992Z,101733.31
2022-09-03T00:41:34.507Z,101735.09
2022-09-03T00:44:11.043Z,101737.75
2022-09-03T00:47:00.296Z,101733.31
2022-09-03T00:49:37.159Z,101736.91
2022-09-03T00:52:28.056Z,101732.47
2022-09-03T00:55:06.999Z,101723.59
2022-09-03T00:57:44.242Z,101729.81
2022-09-03T01:00:12.971Z,101731.56
2022-09-03T01:02:57.676Z,101726.25
2022-09-03T01:05:34.314Z,101729.81
2022-09-03T01:08:04.931Z,101721.81
2022-09-03T01:10:54.899Z,101722.69
2022-09-03T01:13:33.058Z,101720.94
2022-09-03T01:16:17.989Z,101722.75
2022-09-03T01:18:50.414Z,101722.75
2022-09-03T01:21:38.519Z,101722.75
2022-09-03T01:24:23.627Z,101721.84
2022-09-03T01:27:06.503Z,101720.09
2022-09-03T01:29:49.757Z,101722.75
2022-09-03T01:32:16.791Z,101726.31
2022-09-03T01:34:48.381Z,101719.22
2022-09-03T01:37:20.405Z,101723.66
2022-09-03T01:39:49.718Z,101721.00
2022-09-03T01:42:22.018Z,101725.44
2022-09-03T01:45:07.650Z,101721.88
2022-09-03T01:47:54.911Z,101725.44
2022-09-03T01:50:40.266Z,101728.09
2022-09-03T01:53:18.887Z,101724.56
2022-09-03T01:55:48.001Z,101716.59
2022-09-03T01:58:20.088Z,101726.38
2022-09-03T02:00:49.927Z,101721.06
2022-09-03T02:03:16.648Z,101719.31
2022-09-03T02:05:44.075Z,101721.13
2022-09-03T02:08:11.758Z,101714.91
2022-09-03T02:10:41.087Z,101713.16
2022-09-03T02:13:12.095Z,101716.72
2022-09-03T02:15:40.517Z,101715.84
2022-09-03T02:18:11.037Z,101722.97
2022-09-03T02:20:37.569Z,101726.53
2022-09-03T02:23:04.159Z,101709.69
2022-09-03T02:25:36.898Z,101715.88
2022-09-03T02:28:04.469Z,101708.81
2022-09-03T02:30:33.914Z,101715.03
2022-09-03T02:33:00.796Z,101714.16
2022-09-03T02:35:27.563Z,101713.31
2022-09-03T02:37:54.214Z,101718.63
2022-09-03T02:40:20.546Z,101716.84
2022-09-03T02:42:47.150Z,101707.09
2022-09-03T02:45:21.298Z,101704.44
2022-09-03T02:47:50.259Z,101701.75
2022-09-03T02:50:16.597Z,101701.75
2022-09-03T02:52:42.958Z,101701.75
2022-09-03T02:55:09.449Z,101700.91
2022-09-03T02:57:35.754Z,101698.25
2022-09-03T03:00:02.253Z,101693.84
2022-09-03T03:02:28.646Z,101698.31
2022-09-03T03:04:55.573Z,101701.84
2022-09-03T03:07:21.889Z,101699.19
2022-09-03T03:09:48.237Z,101700.09
2022-09-03T03:12:17.241Z,101699.25
2022-09-03T03:14:43.714Z,101701.03
2022-09-03T03:17:10.068Z,101708.16
2022-09-03T03:19:36.378Z,101703.72
2022-09-03T03:22:02.679Z,101706.38
2022-09-03T03:24:29.033Z,101704.56
2022-09-03T03:26:58.031Z,101701.94
2022-09-03T03:29:25.205Z,101705.47
2022-09-03T03:31:51.926Z,101703.72
2022-09-03T03:34:18.257Z,101703.72
2022-09-03T03:36:44.587Z,101701.97
2022-09-03T03:39:11.274Z,101703.75
2022-09-03T03:41:38.224Z,101701.97
2022-09-03T03:44:07.926Z,101704.59
2022-09-03T03:46:38.763Z,101706.41
2022-09-03T03:49:08.503Z,101703.72
2022-09-03T03:51:35.983Z,101709.00
2022-09-03T03:54:05.316Z,101714.31
2022-09-03T03:56:32.493Z,101712.50
2022-09-03T03:58:59.567Z,101718.69
2022-09-03T04:01:26.915Z,101715.13
2022-09-03T04:03:57.157Z,101713.34
2022-09-03T04:06:23.738Z,101720.41
2022-09-03T04:08:50.395Z,101717.72
2022-09-03T04:11:21.083Z,101731.84
2022-09-03T04:13:48.035Z,101723.84
2022-09-03T04:16:15.899Z,101727.31
2022-09-03T04:18:42.375Z,101729.06
2022-09-03T04:21:08.675Z,101732.59
2022-09-03T04:23:36.720Z,101724.59
2022-09-03T04:26:03.344Z,101733.44
2022-09-03T04:28:32.018Z,101730.75
2022-09-03T04:31:05.116Z,101733.38
2022-09-03T04:33:32.355Z,101736.88
2022-09-03T04:36:03.607Z,101740.38
2022-09-03T04:38:32.460Z,101735.03
2022-09-03T04:40:59.880Z,101740.31
2022-09-03T04:43:26.628Z,101732.34
2022-09-03T04:45:56.204Z,101736.72
2022-09-03T04:48:22.563Z,101743.75
2022-09-03T04:50:48.874Z,101739.31
2022-09-03T04:53:15.291Z,101738.44
2022-09-03T04:55:41.592Z,101738.41
2022-09-03T04:58:08.507Z,101745.41
2022-09-03T05:00:36.112Z,101742.78
2022-09-03T05:03:04.823Z,101742.78
2022-09-03T05:05:31.770Z,101734.81
2022-09-03T05:07:58.503Z,101742.78
2022-09-03T05:10:24.839Z,101745.38
2022-09-03T05:13:01.547Z,101743.59
2022-09-03T05:15:28.693Z,101747.13
2022-09-03T05:18:04.259Z,101755.06
2022-09-03T05:20:31.164Z,101754.19
2022-09-03T05:22:57.476Z,101756.81
2022-09-03T05:25:24.551Z,101760.38
2022-09-03T05:27:51.668Z,101759.50
2022-09-03T05:30:17.979Z,101763.97
2022-09-03T05:32:44.329Z,101763.16
2022-09-03T05:35:11.006Z,101759.72
2022-09-03T05:37:37.729Z,101769.50
2022-09-03T05:40:04.437Z,101754.56
2022-09-03T05:42:35.447Z,101761.69
2022-09-03T05:45:01.789Z,101760.00
2022-09-03T05:47:28.247Z,101753.84
2022-09-03T05:49:54.618Z,101748.63
2022-09-03T05:52:23.408Z,101744.25
2022-09-03T05:54:49.736Z,101746.06
2022-09-03T05:57:16.027Z,101751.44
2022-09-03T05:59:42.373Z,101751.47
2022-09-03T06:02:08.829Z,101748.84
2022-09-03T06:04:38.507Z,101745.31
2022-09-03T06:07:04.881Z,101760.38
2022-09-03T06:09:31.201Z,101744.47
2022-09-03T06:11:57.546Z,101753.31
2022-09-03T06:14:25.877Z,101748.88
2022-09-03T06:16:52.939Z,101749.78
2022-09-03T06:19:19.626Z,101751.47
2022-09-03T06:21:46.567Z,101749.56
2022-09-03T06:24:16.493Z,101746.78
2022-09-03T06:26:43.289Z,101746.66
2022-09-03T06:29:10.594Z,101745.69
2022-09-03T06:31:37.092Z,101749.16
2022-09-03T06:34:04.407Z,101745.59
2022-09-03T06:36:30.948Z,101744.75
2022-09-03T06:38:57.789Z,101744.75
2022-09-03T06:41:25.439Z,101747.44
2022-09-03T06:43:53.343Z,101741.22
2022-09-03T06:46:23.938Z,101742.94
2022-09-03T06:48:53.411Z,101746.44
2022-09-03T06:51:21.013Z,101750.81
2022-09-03T06:53:48.395Z,101735.66
2022-09-03T06:56:16.894Z,101740.03
2022-09-03T06:58:44.391Z,101738.13
2022-09-03T07:01:10.746Z,101746.91
2022-09-03T07:03:37.861Z,101749.38
2022-09-03T07:06:05.474Z,101753.66
2022-09-03T07:08:33.329Z,101752.59
2022-09-03T07:11:00.398Z,101763.91
2022-09-03T07:13:26.867Z,101754.78
2022-09-03T07:16:00.568Z,101758.25
2022-09-03T07:18:26.949Z,101757.13
2022-09-03T07:20:57.376Z,101759.03
2022-09-03T07:23:23.701Z,101752.03
2022-09-03T07:26:00.273Z,101750.13
2022-09-03T07:28:27.667Z,101756.19
2022-09-03T07:30:55.146Z,101755.94
2022-09-03T07:33:21.543Z,101752.28
2022-09-03T07:35:47.906Z,101751.19
2022-09-03T07:38:19.722Z,101751.97
2022-09-03T07:40:47.154Z,101751.84
2022-09-03T07:43:13.649Z,101750.78
2022-09-03T07:45:40.058Z,101740.75
2022-09-03T07:48:06.400Z,101747.81
2022-09-03T07:50:39.096Z,101757.53
2022-09-03T07:53:05.444Z,101751.13
2022-09-03T07:55:31.915Z,101751.63
2022-09-03T07:57:59.455Z,101746.34
2022-09-03T08:00:26.268Z,101752.31
2022-09-03T08:02:56.548Z,101745.84
2022-09-03T08:05:22.881Z,101746.56
2022-09-03T08:07:49.563Z,101740.75
2022-09-03T08:10:16.531Z,101741.25
2022-09-03T08:12:42.862Z,101739.63
2022-09-03T08:15:09.310Z,101739.56
2022-09-03T08:17:35.646Z,101732.34
2022-09-03T08:20:03.621Z,101736.03
2022-09-03T08:22:29.983Z,101742.63
2022-09-03T08:24:56.296Z,101747.56
2022-09-03T08:27:25.367Z,101744.41
2022-09-03T08:29:51.722Z,101742.16
2022-09-03T08:32:18.053Z,101746.06
2022-09-03T08:34:44.378Z,101752.53
2022-09-03T08:37:12.552Z,101742.69
2022-09-03T08:39:39.343Z,101745.00
2022-09-03T08:42:24.319Z,101747.88
2022-09-03T08:45:02.614Z,101746.56
2022-09-03T08:47:39.399Z,101737.13
2022-09-03T08:50:26.330Z,101731.31
2022-09-03T08:52:52.635Z,101735.25
2022-09-03T08:55:22.550Z,101727.97
2022-09-03T08:57:51.074Z,101730.28
2022-09-03T09:00:17.784Z,101733.66
2022-09-03T09:02:58.294Z,101734.16
2022-09-03T09:05:32.304Z,101735.84
2022-09-03T09:08:08.065Z,101744.84
2022-09-03T09:10:34.436Z,101733.13
2022-09-03T09:13:39.444Z,101728.44
2022-09-03T09:16:08.890Z,101738.16
2022-09-03T09:18:46.703Z,101744.31
2022-09-03T09:21:21.928Z,101735.59
2022-09-03T09:23:50.200Z,101733.16
2022-09-03T09:26:18.088Z,101738.28
2022-09-03T09:28:46.703Z,101728.19
2022-09-03T09:31:16.090Z,101730.56
2022-09-03T09:33:42.591Z,101735.16
2022-09-03T09:36:11.697Z,101725.91
2022-09-03T09:38:38.515Z,101730.50
2022-09-03T09:41:29.852Z,101729.59
2022-09-03T09:44:02.087Z,101734.63
2022-09-03T09:46:39.526Z,101732.09
2022-09-03T09:49:25.143Z,101725.75
2022-09-03T09:52:00.377Z,101731.91
2022-09-03T09:54:28.173Z,101727.81
2022-09-03T09:57:05.749Z,101729.28
2022-09-03T09:59:33.857Z,101721.22
2022-09-03T10:02:13.813Z,101726.44
2022-09-03T10:04:48.602Z,101727.63
2022-09-03T10:07:32.836Z,101721.81
2022-09-03T10:09:59.118Z,101708.50
2022-09-03T10:12:31.662Z,101721.00
2022-09-03T10:15:07.510Z,101723.16
2022-09-03T10:17:44.884Z,101723.72
2022-09-03T10:20:31.326Z,101720.41
2022-09-03T10:22:57.737Z,101721.72
2022-09-03T10:25:26.873Z,101709.38
2022-09-03T10:27:56.698Z,101713.41
2022-09-03T10:30:26.149Z,101707.25
2022-09-03T10:33:01.386Z,101702.41
2022-09-03T10:35:30.373Z,101708.81
2022-09-03T10:38:05.573Z,101706.38
2022-09-03T10:40:38.007Z,101703.59
2022-09-03T10:43:23.901Z,101701.84
2022-09-03T10:46:19.503Z,101692.38
2022-09-03T10:49:11.813Z,101713.78
2022-09-03T10:51:45.131Z,101697.94
2022-09-03T10:54:37.871Z,101694.66
2022-09-03T10:57:19.244Z,101694.66
2022-09-03T11:00:01.915Z,101694.41
2022-09-03T11:02:34.127Z,101681.94
2022-09-03T11:05:05.068Z,101695.19
2022-09-03T11:07:43.127Z,101679.03
2022-09-03T11:10:18.742Z,101672.84
2022-09-03T11:12:47.774Z,101668.44
2022-09-03T11:15:27.877Z,101668.63
2022-09-03T11:18:08.452Z,101679.63
2022-09-03T11:20:35.367Z,101671.66
2022-09-03T11:23:04.997Z,101674.81
2022-09-03T11:25:34.025Z,101661.63
2022-09-03T11:28:03.281Z,101657.50
2022-09-03T11:30:37.805Z,101657.81
2022-09-03T11:33:09.408Z,101665.78
2022-09-03T11:35:35.778Z,101667.31
2022-09-03T11:38:03.470Z,101663.97
2022-09-03T11:40:33.108Z,101673.94
2022-09-03T11:43:14.602Z,101662.47
2022-09-03T11:45:41.357Z,101666.59
2022-09-03T11:48:17.552Z,101665.28
2022-09-03T11:50:52.487Z,101649.50
2022-09-03T11:53:19.042Z,101641.94
2022-09-03T11:55:56.950Z,101654.66
2022-09-03T11:58:25.611Z,101650.22
2022-09-03T12:00:55.092Z,101661.78
2022-09-03T12:03:44.789Z,101647.03
2022-09-03T12:06:23.016Z,101636.50
2022-09-03T12:08:49.331Z,101647.91
2022-09-03T12:11:35.565Z,101635.97
2022-09-03T12:14:01.849Z,101630.84
2022-09-03T12:16:54.481Z,101636.19
2022-09-03T12:19:39.848Z,101633.47
2022-09-03T12:22:06.427Z,101617.94
2022-09-03T12:24:38.433Z,101618.81
2022-09-03T12:27:05.311Z,101634.97
2022-09-03T12:29:31.936Z,101627.00
2022-09-03T12:32:06.889Z,101626.63
2022-09-03T12:34:33.262Z,101617.69
2022-09-03T12:36:59.619Z,101609.94
2022-09-03T12:42:19.485Z,101614.72
2022-09-03T12:44:45.805Z,101619.03
2022-09-03T12:50:05.286Z,101618.47
2022-09-03T12:52:35.294Z,101604.09
2022-09-03T12:55:01.660Z,101607.94
2022-09-03T12:57:33.909Z,101611.59
2022-09-03T13:00:03.997Z,101601.34
2022-09-03T13:02:36.819Z,101586.59
2022-09-03T13:05:03.876Z,101600.16
2022-09-03T13:07:33.562Z,101605.81
2022-09-03T13:10:08.676Z,101614.09
2022-09-03T13:12:53.775Z,101604.25
2022-09-03T13:15:22.636Z,101595.78
2022-09-03T13:17:57.877Z,101603.13
2022-09-03T13:20:48.004Z,101590.03
2022-09-03T13:23:20.427Z,101589.66
2022-09-03T13:26:05.950Z,101597.56
2022-09-03T13:28:41.535Z,101603.19
2022-09-03T13:31:11.031Z,101596.97
2022-09-03T13:33:46.092Z,101598.00
2022-09-03T13:36:25.929Z,101605.41
2022-09-03T13:38:59.119Z,101599.66
2022-09-03T13:41:36.554Z,101594.03
2022-09-03T13:44:07.773Z,101591.84
2022-09-03T13:46:44.156Z,101587.38
2022-09-03T13:49:48.281Z,101588.72
2022-09-03T13:52:33.194Z,101589.59
2022-09-03T13:55:03.867Z,101594.66
2022-09-03T13:57:45.757Z,101590.41
2022-09-03T14:00:13.815Z,101583.78
2022-09-03T14:02:50.813Z,101593.38
2022-09-03T14:05:23.707Z,101581.63
2022-09-03T14:07:58.904Z,101585.91
2022-09-03T14:10:25.191Z,101581.19
2022-09-03T14:13:10.242Z,101588.72
2022-09-03T14:15:45.716Z,101579.38
2022-09-03T14:18:30.872Z,101570.13
2022-09-03T14:20:59.640Z,101580.78
2022-09-03T14:23:35.214Z,101584.88
2022-09-03T14:26:03.571Z,101583.50
2022-09-03T14:28:45.262Z,101580.84
2022-09-03T14:31:29.820Z,101577.81
2022-09-03T14:33:56.172Z,101584.38
2022-09-03T14:36:39.450Z,101574.75
2022-09-03T14:39:18.136Z,101575.41
2022-09-03T14:41:44.660Z,101573.47
2022-09-03T14:44:26.327Z,101573.75
2022-09-03T14:47:01.378Z,101569.88
2022-09-03T14:49:46.604Z,101564.13
2022-09-03T14:52:29.952Z,101565.97
2022-09-03T14:55:04.414Z,101560.28
2022-09-03T14:57:36.994Z,101563.00
2022-09-03T15:00:20.029Z,101560.09
2022-09-03T15:02:51.342Z,101574.91
2022-09-03T15:05:18.485Z,101565.72
2022-09-03T15:07:50.803Z,101587.53
2022-09-03T15:10:26.449Z,101566.56
2022-09-03T15:12:55.069Z,101567.25
2022-09-03T15:15:24.683Z,101571.66
2022-09-03T15:18:09.553Z,101593.47
2022-09-03T15:20:46.014Z,101570.78
2022-09-03T15:23:31.133Z,101575.34
2022-09-03T15:26:16.367Z,101579.31
2022-09-03T15:28:48.953Z,101578.13
2022-09-03T15:31:18.427Z,101579.78
2022-09-03T15:36:18.732Z,101571.03
2022-09-03T15:39:03.658Z,101572.03
2022-09-03T15:41:48.865Z,101578.25
2022-09-03T15:44:19.528Z,101576.63
2022-09-03T15:46:49.219Z,101582.75
2022-09-03T15:49:24.608Z,101586.03
2022-09-03T15:51:50.903Z,101580.22
2022-09-03T15:54:19.913Z,101581.19
2022-09-03T15:57:03.234Z,101577.13
2022-09-03T15:59:37.209Z,101577.53
2022-09-03T16:02:10.906Z,101572.41
2022-09-03T16:04:43.770Z,101582.22
2022-09-03T16:07:18.224Z,101577.06
2022-09-03T16:10:24.365Z,101580.38
2022-09-03T16:13:26.693Z,101582.22
2022-09-03T16:16:11.480Z,101584.22
2022-09-03T16:18:53.916Z,101588.91
2022-09-03T16:21:26.422Z,101591.72
2022-09-03T16:24:01.499Z,101585.72
2022-09-03T16:26:33.595Z,101584.06
2022-09-03T16:29:11.619Z,101585.56
2022-09-03T16:31:46.876Z,101578.28
2022-09-03T16:34:18.825Z,101586.00
2022-09-03T16:36:57.621Z,101585.84
2022-09-03T16:39:23.941Z,101590.22
2022-09-03T16:41:58.545Z,101586.66
2022-09-03T16:44:25.100Z,101588.59
2022-09-03T16:47:03.994Z,101586.81
2022-09-03T16:49:49.884Z,101585.00
2022-09-03T16:52:38.491Z,101585.38
2022-09-03T16:55:14.684Z,101591.19
2022-09-03T16:57:50.240Z,101595.66
2022-09-03T17:00:20.250Z,101596.66
2022-09-03T17:02:52.831Z,101594.03
2022-09-03T17:05:37.914Z,101598.81
2022-09-03T17:08:13.409Z,101594.47
2022-09-03T17:11:01.298Z,101597.53
2022-09-03T17:13:36.508Z,101599.66
2022-09-03T17:16:15.761Z,101600.72
2022-09-03T17:19:07.056Z,101601.84
2022-09-03T17:21:46.774Z,101601.13
2022-09-03T17:24:26.499Z,101602.28
2022-09-03T17:27:21.508Z,101604.34
2022-09-03T17:30:06.755Z,101604.63
2022-09-03T17:32:41.957Z,101597.72
2022-09-03T17:35:13.058Z,101601.44
2022-09-03T17:37:50.520Z,101606.97
2022-09-03T17:40:22.443Z,101609.91
2022-09-03T17:42:54.457Z,101603.75
2022-09-03T17:45:20.868Z,101610.16
2022-09-03T17:48:05.948Z,101612.22
2022-09-03T17:50:43.591Z,101609.09
2022-09-03T17:53:15.543Z,101614.59
2022-09-03T17:55:46.371Z,101616.50
2022-09-03T17:58:16.285Z,101621.13
2022-09-03T18:00:57.167Z,101636.41
2022-09-03T18:03:39.589Z,101634.75
2022-09-03T18:06:11.176Z,101634.06
2022-09-03T18:09:03.394Z,101642.22
2022-09-03T18:11:36.656Z,101652.19
2022-09-03T18:14:11.783Z,101655.81
2022-09-03T18:16:47.431Z,101651.34
2022-09-03T18:19:35.582Z,101663.09
2022-09-03T18:22:22.312Z,101665.81
2022-09-03T18:25:16.333Z,101670.34
2022-09-03T18:28:15.255Z,101669.47
2022-09-03T18:31:00.258Z,101670.50
2022-09-03T18:33:45.346Z,101674.16
2022-09-03T18:36:31.382Z,101682.25
2022-09-03T18:39:54.989Z,101680.63
2022-09-03T18:42:54.518Z,101689.66
2022-09-03T18:49:07.832Z,101689.81
2022-09-03T18:52:11.689Z,101700.63
2022-09-03T18:55:11.781Z,101695.31
2022-09-03T18:58:09.672Z,101703.28
2022-09-03T19:00:58.764Z,101702.38
2022-09-03T19:04:02.305Z,101713.03
2022-09-03T19:07:13.257Z,101696.09
2022-09-03T19:10:03.886Z,101713.09
2022-09-03T19:13:07.817Z,101708.78
2022-09-03T19:15:58.540Z,101713.31
2022-09-03T19:18:46.700Z,101718.69
2022-09-03T19:21:46.988Z,101720.44
2022-09-03T19:24:31.967Z,101715.13
2022-09-03T19:27:52.980Z,101713.38
2022-09-03T19:30:37.615Z,101720.59
2022-09-03T19:33:28.638Z,101727.78
2022-09-03T19:36:13.506Z,101725.16
2022-09-03T19:39:01.449Z,101718.94
2022-09-03T19:41:50.426Z,101727.84
2022-09-03T19:44:54.164Z,101729.72
2022-09-03T19:47:54.375Z,101732.38
2022-09-03T19:50:40.719Z,101732.41
2022-09-03T19:53:29.481Z,101745.78
2022-09-03T19:56:15.861Z,101743.19
2022-09-03T19:59:30.144Z,101738.78
2022-09-03T20:02:15.254Z,101746.84
2022-09-03T20:05:03.178Z,101739.84
2022-09-03T20:07:48.222Z,101739.03
2022-09-03T20:10:22.624Z,101739.03
2022-09-03T20:13:10.415Z,101733.72
2022-09-03T20:15:49.539Z,101740.00
2022-09-03T20:18:45.303Z,101743.53
2022-09-03T20:21:11.598Z,101748.91
2022-09-03T20:23:47.180Z,101748.06
2022-09-03T20:26:32.017Z,101744.50
2022-09-03T20:29:30.941Z,101754.34
2022-09-03T20:32:00.219Z,101753.50
2022-09-03T20:34:44.512Z,101749.94
2022-09-03T20:37:10.812Z,101757.97
2022-09-03T20:39:37.250Z,101753.53
2022-09-03T20:42:42.105Z,101749.09
2022-09-03T20:45:17.876Z,101750.91
2022-09-03T20:47:49.531Z,101751.84
2022-09-03T20:50:25.005Z,101754.50
2022-09-03T20:53:06.465Z,101763.38
2022-09-03T20:55:41.851Z,101756.31
2022-09-03T20:58:18.174Z,101760.78
2022-09-03T21:01:03.362Z,101760.81
2022-09-03T21:03:29.685Z,101767.84
2022-09-03T21:05:56.074Z,101761.69
2022-09-03T21:08:24.458Z,101775.94
2022-09-03T21:11:09.592Z,101764.41
2022-09-03T21:13:41.963Z,101766.19
2022-09-03T21:16:08.432Z,101767.97
2022-09-03T21:18:53.611Z,101769.75
2022-09-03T21:21:26.087Z,101766.22
2022-09-03T21:24:05.031Z,101774.19
2022-09-03T21:26:34.673Z,101768.94
2022-09-03T21:29:01.011Z,101765.34
2022-09-03T21:31:31.735Z,101768.94
2022-09-03T21:34:11.123Z,101776.94
2022-09-03T21:36:38.312Z,101776.91
2022-09-03T21:39:18.825Z,101779.63
2022-09-03T21:41:55.267Z,101789.44
2022-09-03T21:44:21.547Z,101786.78
2022-09-03T21:46:56.886Z,101781.50
2022-09-03T21:49:26.542Z,101784.16
2022-09-03T21:52:05.091Z,101792.16
2022-09-03T21:54:33.727Z,101792.16
2022-09-03T21:57:09.552Z,101786.88
2022-09-03T21:59:51.792Z,101793.09
2022-09-03T22:02:24.156Z,101788.66
2022-09-03T22:04:51.133Z,101793.09
2022-09-03T22:07:23.211Z,101788.66
2022-09-03T22:09:54.518Z,101793.13
2022-09-03T22:12:27.906Z,101791.31
2022-09-03T22:14:55.669Z,101794.00
2022-09-03T22:17:43.860Z,101794.91
2022-09-03T22:20:15.390Z,101794.00
2022-09-03T22:22:45.134Z,101795.78
2022-09-03T22:25:14.846Z,101786.03
2022-09-03T22:27:46.237Z,101786.94
2022-09-03T22:30:14.512Z,101796.69
2022-09-03T22:32:49.633Z,101788.72
2022-09-03T22:35:15.984Z,101786.09
2022-09-03T22:37:48.748Z,101792.28
2022-09-03T22:40:24.220Z,101789.63
2022-09-03T22:43:09.580Z,101793.16
2022-09-03T22:45:46.366Z,101782.53
2022-09-03T22:48:30.672Z,101788.75
2022-09-03T22:51:01.598Z,101796.72
2022-09-03T22:53:34.165Z,101787.84
2022-09-03T22:56:05.830Z,101794.06
2022-09-03T22:58:38.170Z,101788.75
2022-09-03T23:01:08.049Z,101794.94
2022-09-03T23:03:55.442Z,101793.16
2022-09-03T23:06:26.752Z,101787.84
2022-09-03T23:09:06.963Z,101791.41
2022-09-03T23:11:34.465Z,101792.28
2022-09-03T23:14:04.674Z,101792.28
2022-09-03T23:16:38.752Z,101792.31
2022-09-03T23:21:58.614Z,101790.53
2022-09-03T23:24:30.986Z,101795.84
2022-09-03T23:26:59.058Z,101802.06
2022-09-03T23:29:40.773Z,101809.16
2022-09-03T23:32:09.216Z,101797.63
2022-09-03T23:34:36.034Z,101798.47
2022-09-03T23:37:36.472Z,101799.38
2022-09-03T23:40:25.730Z,101799.41
2022-09-03T23:43:10.534Z,101800.28
2022-09-03T23:45:46.203Z,101801.19
2022-09-03T23:48:21.902Z,101797.63
2022-09-03T23:50:58.533Z,101795.84
2022-09-03T23:53:43.174Z,101795.84
2022-09-03T23:56:15.628Z,101792.31
2022-09-03T23:58:41.995Z,101788.72
